createdAt,value
2022-09-12T00:01:54.263Z,13.38
2022-09-12T00:06:56.384Z,12.93
2022-09-12T00:11:58.425Z,13.25
2022-09-12T00:17:00.741Z,12.75
2022-09-12T00:22:02.871Z,12.60
2022-09-12T00:27:04.977Z,12.91
2022-09-12T00:32:07.166Z,12.46
2022-09-12T00:37:09.308Z,12.41
2022-09-12T00:42:12.831Z,12.44
2022-09-12T00:47:20.951Z,12.56
2022-09-12T00:52:37.617Z,12.54
2022-09-12T00:58:02.425Z,12.55
2022-09-12T01:03:09.159Z,12.56
2022-09-12T01:08:11.650Z,12.57
2022-09-12T01:13:14.462Z,12.60
2022-09-12T01:18:37.715Z,12.78
2022-09-12T01:24:08.071Z,12.81
2022-09-12T01:29:31.926Z,12.83
2022-09-12T01:34:50.097Z,12.84
2022-09-12T01:40:19.383Z,12.78
2022-09-12T01:45:32.978Z,12.50
2022-09-12T01:50:52.935Z,12.44
2022-09-12T01:56:02.519Z,12.34
2022-09-12T02:01:22.472Z,12.38
2022-09-12T02:06:32.140Z,12.28
2022-09-12T02:11:39.697Z,12.20
2022-09-12T02:17:08.003Z,12.29
2022-09-12T02:22:15.773Z,12.15
2022-09-12T02:27:31.133Z,12.05
2022-09-12T02:33:02.057Z,12.27
2022-09-12T02:38:13.447Z,12.18
2022-09-12T02:43:15.655Z,12.15
2022-09-12T02:48:30.556Z,12.23
2022-09-12T02:53:33.950Z,12.05
2022-09-12T02:58:35.999Z,11.96
2022-09-12T03:04:27.137Z,12.07
2022-09-12T03:09:53.991Z,12.03
2022-09-12T03:15:08.137Z,11.81
2022-09-12T03:20:36.886Z,11.85
2022-09-12T03:25:47.630Z,11.73
2022-09-12T03:30:54.854Z,11.65
2022-09-12T03:35:57.263Z,11.63
2022-09-12T03:41:01.028Z,11.53
2022-09-12T03:46:03.180Z,11.55
2022-09-12T03:51:08.775Z,11.62
2022-09-12T03:56:12.773Z,11.55
2022-09-12T04:01:18.079Z,11.58
2022-09-12T04:06:22.593Z,11.58
2022-09-12T04:11:24.659Z,11.58
2022-09-12T04:16:27.049Z,11.68
2022-09-12T04:21:29.310Z,11.69
2022-09-12T04:26:31.899Z,12.13
2022-09-12T04:31:33.825Z,12.18
2022-09-12T04:36:36.398Z,11.83
2022-09-12T04:41:39.914Z,11.72
2022-09-12T04:46:45.552Z,11.70
2022-09-12T04:51:47.820Z,11.56
2022-09-12T04:56:52.519Z,11.70
2022-09-12T05:01:54.696Z,11.64
2022-09-12T05:06:56.657Z,12.03
2022-09-12T05:12:04.183Z,11.60
2022-09-12T05:17:07.356Z,11.64
2022-09-12T05:22:09.873Z,12.31
2022-09-12T05:27:11.964Z,12.56
2022-09-12T05:32:14.067Z,12.32
2022-09-12T05:37:16.056Z,12.93
2022-09-12T05:42:18.183Z,12.74
2022-09-12T05:47:20.177Z,13.34
2022-09-12T05:52:22.310Z,12.94
2022-09-12T05:57:24.335Z,12.95
2022-09-12T06:02:26.795Z,13.48
2022-09-12T06:07:29.515Z,13.05
2022-09-12T06:12:31.656Z,13.20
2022-09-12T06:17:33.725Z,13.42
2022-09-12T06:22:35.869Z,14.13
2022-09-12T06:27:37.913Z,13.96
2022-09-12T06:32:40.009Z,14.10
2022-09-12T06:37:44.214Z,14.82
2022-09-12T06:42:46.307Z,14.37
2022-09-12T06:47:56.671Z,14.42
2022-09-12T06:52:58.710Z,14.33
2022-09-12T06:58:00.757Z,14.95
2022-09-12T07:03:02.956Z,14.37
2022-09-12T07:08:04.990Z,14.92
2022-09-12T07:13:07.129Z,14.38
2022-09-12T07:18:10.532Z,14.83
2022-09-12T07:23:12.639Z,14.24
2022-09-12T07:28:14.947Z,15.00
2022-09-12T07:33:17.785Z,14.43
2022-09-12T07:38:23.204Z,14.31
2022-09-12T07:43:25.595Z,14.62
2022-09-12T07:48:28.547Z,14.61
2022-09-12T07:53:37.011Z,14.60
2022-09-12T07:58:41.105Z,14.53
2022-09-12T08:03:44.845Z,14.63
2022-09-12T08:08:48.551Z,14.59
2022-09-12T08:13:55.246Z,14.68
2022-09-12T08:19:00.037Z,14.75
2022-09-12T08:24:05.199Z,14.82
2022-09-12T08:29:07.245Z,14.60
2022-09-12T08:34:09.789Z,14.47
2022-09-12T08:39:30.358Z,14.43
2022-09-12T08:44:48.063Z,14.18
2022-09-12T08:49:56.648Z,14.09
2022-09-12T08:54:58.954Z,13.97
2022-09-12T09:00:04.935Z,14.22
2022-09-12T09:05:22.044Z,14.50
2022-09-12T09:10:49.928Z,14.85
2022-09-12T09:16:21.771Z,15.31
2022-09-12T09:21:33.075Z,15.70
2022-09-12T09:26:46.632Z,16.02
2022-09-12T09:31:53.423Z,16.15
2022-09-12T09:37:01.722Z,16.41
2022-09-12T09:42:22.708Z,16.97
2022-09-12T09:47:24.878Z,16.71
2022-09-12T09:52:30.925Z,16.40
2022-09-12T09:57:36.378Z,16.53
2022-09-12T10:02:38.797Z,16.39
2022-09-12T10:07:50.355Z,16.39
2022-09-12T10:13:07.483Z,16.55
2022-09-12T10:18:10.086Z,16.61
2022-09-12T10:23:35.599Z,17.01
2022-09-12T10:28:40.930Z,16.95
2022-09-12T10:33:52.929Z,17.24
2022-09-12T10:38:57.593Z,18.14
2022-09-12T10:44:16.556Z,17.82
2022-09-12T10:49:26.697Z,17.72
2022-09-12T10:54:28.839Z,17.45
2022-09-12T10:59:40.308Z,17.27
2022-09-12T11:05:04.079Z,17.32
2022-09-12T11:10:35.645Z,17.30
2022-09-12T11:15:48.656Z,17.41
2022-09-12T11:21:21.875Z,17.89
2022-09-12T11:26:42.020Z,18.01
2022-09-12T11:31:44.006Z,18.04
2022-09-12T11:37:18.192Z,18.29
2022-09-12T11:42:36.493Z,19.08
2022-09-12T11:47:40.973Z,19.53
2022-09-12T11:52:43.069Z,19.49
2022-09-12T11:57:55.894Z,19.53
2022-09-12T12:03:07.135Z,19.15
2022-09-12T12:08:11.056Z,18.66
2022-09-12T12:13:33.381Z,18.62
2022-09-12T12:18:40.456Z,18.11
2022-09-12T12:24:08.122Z,17.92
2022-09-12T12:29:22.317Z,17.64
2022-09-12T12:34:42.906Z,17.34
2022-09-12T12:39:52.030Z,17.11
2022-09-12T12:44:54.107Z,16.97
2022-09-12T12:50:01.964Z,17.41
2022-09-12T12:55:05.744Z,16.51
2022-09-12T13:00:25.382Z,16.53
2022-09-12T13:05:30.835Z,16.40
2022-09-12T13:10:33.486Z,16.46
2022-09-12T13:15:35.599Z,16.69
2022-09-12T13:20:54.420Z,17.96
2022-09-12T13:26:01.951Z,18.16
2022-09-12T13:31:09.970Z,17.95
2022-09-12T13:36:40.041Z,17.66
2022-09-12T13:42:03.388Z,17.19
2022-09-12T13:47:05.720Z,16.78
2022-09-12T13:52:21.507Z,16.89
2022-09-12T13:57:37.743Z,16.70
2022-09-12T14:02:40.721Z,16.35
2022-09-12T14:07:54.445Z,16.35
2022-09-12T14:12:57.599Z,16.32
2022-09-12T14:18:03.424Z,16.39
2022-09-12T14:23:29.187Z,16.47
2022-09-12T14:28:33.040Z,16.18
2022-09-12T14:33:52.955Z,16.30
2022-09-12T14:39:04.804Z,16.19
2022-09-12T14:44:14.441Z,16.10
2022-09-12T14:49:21.401Z,16.07
2022-09-12T14:54:30.342Z,16.02
2022-09-12T14:59:35.578Z,15.90
2022-09-12T15:04:42.595Z,15.68
2022-09-12T15:09:47.338Z,15.49
2022-09-12T15:14:49.751Z,15.37
2022-09-12T15:19:51.917Z,15.21
2022-09-12T15:24:53.975Z,15.63
2022-09-12T15:29:56.607Z,15.02
2022-09-12T15:34:58.831Z,14.80
2022-09-12T15:40:01.343Z,14.69
2022-09-12T15:45:17.558Z,14.72
2022-09-12T15:50:20.207Z,14.45
2022-09-12T15:55:25.322Z,14.37
2022-09-12T16:00:27.514Z,14.22
2022-09-12T16:05:29.926Z,14.60
2022-09-12T16:10:31.931Z,14.60
2022-09-12T16:15:34.221Z,14.06
2022-09-12T16:20:40.127Z,13.96
2022-09-12T16:25:43.051Z,13.86
2022-09-12T16:30:55.599Z,13.88
2022-09-12T16:36:01.392Z,14.10
2022-09-12T16:41:06.717Z,13.54
2022-09-12T16:46:10.507Z,13.36
2022-09-12T16:51:13.182Z,13.27
2022-09-12T16:56:15.840Z,13.06
2022-09-12T17:01:20.608Z,13.05
2022-09-12T17:06:23.987Z,12.88
2022-09-12T17:11:32.211Z,12.83
2022-09-12T17:16:51.476Z,12.85
2022-09-12T17:21:54.451Z,12.71
2022-09-12T17:26:57.298Z,12.73
2022-09-12T17:31:59.646Z,12.65
2022-09-12T17:37:02.027Z,12.57
2022-09-12T17:42:04.668Z,12.47
2022-09-12T17:47:07.072Z,12.41
2022-09-12T17:52:09.568Z,12.41
2022-09-12T17:57:11.875Z,12.48
2022-09-12T18:02:14.564Z,12.56
2022-09-12T18:07:18.853Z,12.63
2022-09-12T18:12:21.623Z,12.70
2022-09-12T18:17:27.495Z,12.77
2022-09-12T18:22:29.598Z,12.80
2022-09-12T18:27:31.505Z,13.18
2022-09-12T18:32:33.964Z,12.89
2022-09-12T18:37:36.187Z,12.86
2022-09-12T18:42:38.245Z,13.29
2022-09-12T18:47:41.603Z,12.88
2022-09-12T18:52:43.810Z,12.87
2022-09-12T18:57:45.759Z,13.28
2022-09-12T19:02:47.916Z,12.89
2022-09-12T19:07:49.880Z,13.29
2022-09-12T19:12:52.056Z,12.91
2022-09-12T19:17:54.205Z,12.86
2022-09-12T19:22:56.262Z,12.73
2022-09-12T19:27:58.372Z,12.79
2022-09-12T19:33:00.448Z,13.36
2022-09-12T19:38:02.599Z,12.93
2022-09-12T19:43:04.625Z,13.35
2022-09-12T19:48:07.395Z,12.91
2022-09-12T19:53:09.835Z,12.79
2022-09-12T19:58:12.733Z,12.71
2022-09-12T20:03:14.922Z,12.62
2022-09-12T20:08:16.868Z,13.07
2022-09-12T20:13:19.019Z,12.64
2022-09-12T20:18:21.261Z,12.60
2022-09-12T20:23:23.463Z,13.03
2022-09-12T20:28:25.563Z,12.57
2022-09-12T20:33:27.633Z,12.90
2022-09-12T20:38:29.848Z,12.40
2022-09-12T20:43:32.056Z,12.78
2022-09-12T20:48:34.237Z,12.36
2022-09-12T20:53:36.294Z,12.84
2022-09-12T20:58:43.029Z,12.49
2022-09-12T21:03:47.056Z,12.46
2022-09-12T21:08:50.537Z,12.47
2022-09-12T21:13:53.716Z,12.45
2022-09-12T21:18:58.389Z,12.43
2022-09-12T21:24:02.933Z,12.40
2022-09-12T21:29:05.041Z,12.39
2022-09-12T21:34:07.099Z,12.89
2022-09-12T21:39:09.305Z,12.48
2022-09-12T21:44:11.484Z,12.42
2022-09-12T21:49:13.430Z,12.85
2022-09-12T21:54:15.511Z,12.41
2022-09-12T21:59:17.500Z,12.79
2022-09-12T22:04:19.507Z,12.28
2022-09-12T22:09:21.535Z,12.65
2022-09-12T22:14:23.751Z,12.19
2022-09-12T22:19:26.449Z,12.15
2022-09-12T22:24:28.612Z,12.11
2022-09-12T22:29:30.572Z,12.60
2022-09-12T22:34:32.679Z,12.19
2022-09-12T22:39:34.750Z,12.17
2022-09-12T22:44:36.900Z,12.20
2022-09-12T22:49:38.879Z,12.69
2022-09-12T22:54:40.943Z,12.29
2022-09-12T22:59:43.042Z,12.67
2022-09-12T23:04:46.802Z,12.24
2022-09-12T23:09:48.841Z,12.16
2022-09-12T23:14:50.960Z,12.08
2022-09-12T23:19:53.022Z,12.50
2022-09-12T23:24:55.113Z,11.93
2022-09-12T23:29:57.160Z,12.26
2022-09-12T23:34:59.388Z,11.70
2022-09-12T23:40:01.508Z,12.00
2022-09-12T23:45:04.074Z,11.48
2022-09-12T23:50:06.694Z,11.39
2022-09-12T23:55:09.345Z,11.32
